createdAt,value
2019-04-28T00:01:27.233Z,9
2019-04-28T00:06:30.673Z,9
2019-04-28T00:11:31.776Z,9
2019-04-28T00:16:33.842Z,9
2019-04-28T00:21:36.177Z,9
2019-04-28T00:26:38.658Z,9
2019-04-28T00:31:41.331Z,9
2019-04-28T00:36:43.202Z,8.9
2019-04-28T00:41:45.252Z,8.9
2019-04-28T00:46:47.595Z,8.8
2019-04-28T00:51:50.901Z,8.8
2019-04-28T00:56:52.292Z,8.7
2019-04-28T01:01:54.475Z,8.7
2019-04-28T01:06:56.928Z,8.7
2019-04-28T01:12:01.674Z,8.7
2019-04-28T01:17:01.577Z,8.5
2019-04-28T01:22:03.628Z,8.2
2019-04-28T01:27:05.962Z,8.1
2019-04-28T01:32:08.212Z,7.9
2019-04-28T01:37:10.513Z,7.8
2019-04-28T01:42:12.882Z,7.6
2019-04-28T01:47:15.196Z,7.5
2019-04-28T01:52:17.487Z,7.4
2019-04-28T01:57:21.462Z,7.4
2019-04-28T02:02:21.983Z,7.3
2019-04-28T02:07:24.259Z,7.3
2019-04-28T02:12:26.670Z,7.3
2019-04-28T02:17:30.360Z,7.2
2019-04-28T02:22:31.809Z,7.3
2019-04-28T02:27:33.450Z,7.3
2019-04-28T02:32:35.798Z,7.3
2019-04-28T02:37:40.356Z,7.3
2019-04-28T02:42:41.072Z,7.3
2019-04-28T02:47:42.709Z,7.3
2019-04-28T02:52:44.965Z,7.3
2019-04-28T02:57:47.195Z,7.3
2019-04-28T03:02:51.298Z,7.3
2019-04-28T03:07:51.992Z,7.3
2019-04-28T03:12:54.079Z,7.3
2019-04-28T03:17:56.504Z,7.2
2019-04-28T03:23:00.991Z,7.3
2019-04-28T03:28:01.116Z,7.3
2019-04-28T03:33:10.726Z,7.3
2019-04-28T03:38:05.530Z,7.3
2019-04-28T03:43:10.432Z,7.3
2019-04-28T03:48:11.413Z,7.2
2019-04-28T03:53:12.495Z,7.2
2019-04-28T03:58:14.778Z,7.1
2019-04-28T04:03:17.042Z,7
2019-04-28T04:08:20.893Z,6.9
2019-04-28T04:13:21.768Z,6.8
2019-04-28T04:18:24.091Z,6.8
2019-04-28T04:23:26.270Z,6.8
2019-04-28T04:28:30.391Z,6.8
2019-04-28T04:33:31.167Z,6.7
2019-04-28T04:38:33.271Z,6.7
2019-04-28T04:43:35.414Z,6.7
2019-04-28T04:48:37.714Z,6.7
2019-04-28T04:53:40.798Z,6.6
2019-04-28T04:58:42.287Z,6.6
2019-04-28T05:03:44.662Z,6.6
2019-04-28T05:08:46.879Z,6.5
2019-04-28T05:13:49.804Z,6.5
2019-04-28T05:18:51.500Z,6.5
2019-04-28T05:23:53.926Z,6.5
2019-04-28T05:28:56.269Z,6.5
2019-04-28T05:33:59.992Z,6.5
2019-04-28T05:39:00.754Z,6.5
2019-04-28T05:44:03.030Z,6.5
2019-04-28T05:49:05.290Z,6.5
2019-04-28T05:54:07.611Z,6.4
2019-04-28T05:59:09.929Z,6.4
2019-04-28T06:04:12.221Z,6.4
2019-04-28T06:09:14.644Z,6.5
2019-04-28T06:14:16.780Z,6.5
2019-04-28T06:19:20.207Z,6.5
2019-04-28T06:24:21.311Z,6.6
2019-04-28T06:29:23.628Z,6.6
2019-04-28T06:34:25.845Z,6.6
2019-04-28T06:39:28.277Z,6.6
2019-04-28T06:44:30.621Z,6.6
2019-04-28T06:49:32.751Z,6.7
2019-04-28T06:54:35.027Z,6.7
2019-04-28T06:59:37.321Z,6.7
2019-04-28T07:04:39.711Z,6.7
2019-04-28T07:09:41.963Z,6.8
2019-04-28T07:14:44.266Z,6.9
2019-04-28T07:19:46.448Z,6.9
2019-04-28T07:24:48.830Z,7
2019-04-28T07:29:51.105Z,6.9
2019-04-28T07:34:53.415Z,7
2019-04-28T07:39:56.819Z,7.1
2019-04-28T07:44:58.056Z,7.3
2019-04-28T07:50:00.302Z,7.4
2019-04-28T07:55:02.640Z,7.5
2019-04-28T08:00:04.953Z,7.7
2019-04-28T08:05:07.185Z,7.8
2019-04-28T08:10:09.554Z,8
2019-04-28T08:15:11.898Z,8.1
2019-04-28T08:20:14.252Z,8.2
2019-04-28T08:25:16.378Z,8.2
2019-04-28T08:30:18.611Z,8.3
2019-04-28T08:35:21.004Z,8.6
2019-04-28T08:40:23.228Z,8.7
2019-04-28T08:50:27.810Z,8.5
2019-04-28T08:55:30.112Z,8.4
2019-04-28T09:00:32.486Z,8.6
2019-04-28T09:05:34.737Z,8.8
2019-04-28T09:10:37.077Z,9.1
2019-04-28T09:15:39.353Z,9.3
2019-04-28T09:20:41.671Z,9.3
2019-04-28T09:25:43.955Z,9.3
2019-04-28T09:30:46.253Z,9.3
2019-04-28T09:35:48.592Z,9.5
2019-04-28T09:40:50.960Z,9.5
2019-04-28T09:45:53.040Z,9.4
2019-04-28T09:50:55.333Z,9.3
2019-04-28T09:55:57.644Z,9.2
2019-04-28T10:01:00.009Z,9
2019-04-28T10:06:02.300Z,8.9
2019-04-28T10:11:04.646Z,8.8
2019-04-28T10:16:06.939Z,8.8
2019-04-28T10:21:09.138Z,8.8
2019-04-28T10:26:11.471Z,8.9
2019-04-28T10:31:13.669Z,9
2019-04-28T10:36:16.059Z,9.1
2019-04-28T10:41:18.437Z,9.1
2019-04-28T10:46:20.811Z,9.1
2019-04-28T10:51:22.982Z,9.1
2019-04-28T10:56:25.105Z,9.4
2019-04-28T11:01:27.488Z,10.1
2019-04-28T11:06:29.831Z,10.5
2019-04-28T11:11:32.025Z,10.3
2019-04-28T11:16:34.434Z,10.2
2019-04-28T11:21:36.708Z,10
2019-04-28T11:26:39.111Z,10.3
2019-04-28T11:31:41.231Z,11.1
2019-04-28T11:36:43.668Z,11.9
2019-04-28T11:41:45.870Z,12.5
2019-04-28T11:46:48.121Z,13.2
2019-04-28T11:51:50.431Z,13.7
2019-04-28T11:56:52.733Z,13.2
2019-04-28T12:01:55.071Z,13
2019-04-28T12:06:57.334Z,13.1
2019-04-28T12:11:59.539Z,12.9
2019-04-28T12:17:01.842Z,12.7
2019-04-28T12:22:04.152Z,13.2
2019-04-28T12:27:06.475Z,14.7
2019-04-28T12:32:08.869Z,15.5
2019-04-28T12:37:11.174Z,15.1
2019-04-28T12:42:13.410Z,14.5
2019-04-28T12:47:15.635Z,14.3
2019-04-28T12:52:17.899Z,14
2019-04-28T12:57:20.258Z,13.8
2019-04-28T13:02:22.618Z,13.5
2019-04-28T13:07:24.789Z,13.2
2019-04-28T13:12:27.238Z,12.9
2019-04-28T13:17:29.511Z,12.6
2019-04-28T13:22:31.751Z,12.4
2019-04-28T13:27:34.127Z,12.2
2019-04-28T13:32:36.376Z,12.2
2019-04-28T13:37:38.683Z,12.4
2019-04-28T13:42:40.897Z,12.4
2019-04-28T13:47:43.295Z,12.4
2019-04-28T13:52:45.614Z,12.1
2019-04-28T13:57:47.937Z,12.1
2019-04-28T14:02:50.064Z,12.7
2019-04-28T14:07:52.382Z,13.1
2019-04-28T14:12:54.732Z,13.5
2019-04-28T14:17:57.002Z,13.5
2019-04-28T14:22:59.243Z,13.2
2019-04-28T14:28:01.495Z,13
2019-04-28T14:33:03.850Z,12.9
2019-04-28T14:38:06.139Z,12.9
2019-04-28T14:43:08.507Z,12.9
2019-04-28T14:48:10.893Z,12.8
2019-04-28T14:53:13.371Z,12.7
2019-04-28T14:58:15.295Z,12.5
2019-04-28T15:03:17.645Z,12.3
2019-04-28T15:13:22.424Z,12.6
2019-04-28T15:18:24.492Z,13
2019-04-28T15:23:26.756Z,13.7
2019-04-28T15:28:29.078Z,14.4
2019-04-28T15:33:31.500Z,15.3
2019-04-28T15:38:33.682Z,15.9
2019-04-28T15:43:35.960Z,16.5
2019-04-28T15:48:38.242Z,16.6
2019-04-28T15:53:40.552Z,15.6
2019-04-28T15:58:42.814Z,14.4
2019-04-28T16:03:45.378Z,13.6
2019-04-28T16:08:47.580Z,13.1
2019-04-28T16:13:49.695Z,12.7
2019-04-28T16:18:52.079Z,12.4
2019-04-28T16:23:54.248Z,12.2
2019-04-28T16:28:56.629Z,12.1
2019-04-28T16:33:58.955Z,11.7
2019-04-28T16:39:01.144Z,11.5
2019-04-28T16:44:03.561Z,11.4
2019-04-28T16:49:05.801Z,11.3
2019-04-28T16:54:08.154Z,11.2
2019-04-28T16:59:10.557Z,11.1
2019-04-28T17:04:12.664Z,11
2019-04-28T17:09:15.009Z,11
2019-04-28T17:14:17.486Z,10.9
2019-04-28T17:19:19.641Z,10.9
2019-04-28T17:24:21.927Z,10.8
2019-04-28T17:29:24.092Z,10.7
2019-04-28T17:34:26.432Z,10.7
2019-04-28T17:39:28.970Z,10.6
2019-04-28T17:44:31.141Z,10.6
2019-04-28T17:49:33.377Z,10.6
2019-04-28T17:54:35.755Z,10.4
2019-04-28T17:59:38.014Z,10.4
2019-04-28T18:04:40.225Z,10.3
2019-04-28T18:09:42.466Z,10.3
2019-04-28T18:14:44.873Z,10.3
2019-04-28T18:19:47.037Z,10.2
2019-04-28T18:24:49.379Z,10.2
2019-04-28T18:29:51.654Z,10.2
2019-04-28T18:34:54.019Z,10.1
2019-04-28T18:39:56.287Z,10
2019-04-28T18:44:58.552Z,10
2019-04-28T18:50:00.898Z,10
2019-04-28T18:55:03.316Z,9.9
2019-04-28T19:00:05.516Z,9.8
2019-04-28T19:05:10.312Z,9.8
2019-04-28T19:10:10.130Z,9.8
2019-04-28T19:15:12.452Z,9.7
2019-04-28T19:20:14.602Z,9.7
2019-04-28T19:25:16.947Z,9.7
2019-04-28T19:30:19.198Z,9.6
2019-04-28T19:35:21.493Z,9.6
2019-04-28T19:40:23.832Z,9.6
2019-04-28T19:45:26.304Z,9.6
2019-04-28T19:50:28.474Z,9.5
2019-04-28T19:55:30.617Z,9.4
2019-04-28T20:00:32.959Z,9.3
2019-04-28T20:05:35.248Z,9.2
2019-04-28T20:10:37.517Z,9.1
2019-04-28T20:15:39.913Z,9
2019-04-28T20:20:42.216Z,8.8
2019-04-28T20:25:44.400Z,8.7
2019-04-28T20:30:46.777Z,8.6
2019-04-28T20:35:49.109Z,8.4
2019-04-28T20:40:51.305Z,8.2
2019-04-28T20:45:53.569Z,8.1
2019-04-28T20:50:55.956Z,8
2019-04-28T20:55:58.362Z,7.9
2019-04-28T21:01:00.612Z,7.8
2019-04-28T21:06:02.839Z,7.7
2019-04-28T21:11:05.055Z,7.6
2019-04-28T21:16:07.570Z,7.5
2019-04-28T21:21:09.749Z,7.4
2019-04-28T21:26:11.969Z,7.3
2019-04-28T21:31:14.302Z,7.2
2019-04-28T21:36:16.628Z,7.1
2019-04-28T21:41:18.900Z,7
2019-04-28T21:46:21.205Z,6.9
2019-04-28T21:51:23.350Z,6.9
2019-04-28T21:56:25.990Z,6.8
2019-04-28T22:01:28.060Z,6.7
2019-04-28T22:06:30.276Z,6.6
2019-04-28T22:11:32.612Z,6.5
2019-04-28T22:16:34.939Z,6.4
2019-04-28T22:21:37.237Z,6.4
2019-04-28T22:26:39.498Z,6.3
2019-04-28T22:31:41.708Z,6.3
2019-04-28T22:36:44.013Z,6.2
2019-04-28T22:41:46.494Z,6.1
2019-04-28T22:46:48.652Z,6.1
2019-04-28T22:51:50.974Z,6
2019-04-28T22:56:53.300Z,6
2019-04-28T23:01:55.579Z,5.9
2019-04-28T23:06:57.808Z,5.9
2019-04-28T23:12:00.168Z,5.8
2019-04-28T23:17:02.448Z,5.7
2019-04-28T23:22:04.718Z,5.6
2019-04-28T23:27:07.099Z,5.6
2019-04-28T23:32:09.494Z,5.6
2019-04-28T23:37:11.884Z,5.6
2019-04-28T23:42:13.913Z,5.5
2019-04-28T23:47:16.169Z,5.5
2019-04-28T23:52:18.515Z,5.4
2019-04-28T23:57:20.855Z,5.3
